createdAt,value
2018-12-03T00:01:24.763Z,99158.01
2018-12-03T00:03:54.264Z,99167.20
2018-12-03T00:06:23.588Z,99167.36
2018-12-03T00:08:53.060Z,99161.70
2018-12-03T00:11:22.693Z,99162.36
2018-12-03T00:13:51.973Z,99159.19
2018-12-03T00:16:21.266Z,99152.35
2018-12-03T00:18:50.644Z,99154.70
2018-12-03T00:21:19.977Z,99152.53
2018-12-03T00:23:49.337Z,99155.70
2018-12-03T00:26:18.941Z,99150.58
2018-12-03T00:28:48.406Z,99157.26
2018-12-03T00:31:18.055Z,99143.52
2018-12-03T00:33:47.422Z,99151.04
2018-12-03T00:36:16.893Z,99147.41
2018-12-03T00:38:46.272Z,99149.02
2018-12-03T00:41:15.648Z,99143.02
2018-12-03T00:43:45.056Z,99142.06
2018-12-03T00:46:14.377Z,99143.58
2018-12-03T00:48:50.582Z,99151.10
2018-12-03T00:51:19.880Z,99151.12
2018-12-03T00:53:49.181Z,99154.36
2018-12-03T00:56:18.521Z,99145.34
2018-12-03T00:58:47.950Z,99148.20
2018-12-03T01:01:17.223Z,99149.53
2018-12-03T01:03:46.569Z,99148.37
2018-12-03T01:06:15.992Z,99150.71
2018-12-03T01:08:45.265Z,99152.88
2018-12-03T01:11:14.542Z,99151.94
2018-12-03T01:13:43.944Z,99158.00
2018-12-03T01:16:13.311Z,99144.66
2018-12-03T01:18:42.755Z,99154.36
2018-12-03T01:21:12.014Z,99153.73
2018-12-03T01:23:41.389Z,99153.09
2018-12-03T01:26:10.716Z,99158.12
2018-12-03T01:28:40.159Z,99156.59
2018-12-03T01:31:09.442Z,99158.44
2018-12-03T01:33:38.993Z,99159.08
2018-12-03T01:36:08.367Z,99159.02
2018-12-03T01:38:37.761Z,99163.56
2018-12-03T01:41:07.379Z,99164.43
2018-12-03T01:43:36.733Z,99167.78
2018-12-03T01:46:06.571Z,99160.78
2018-12-03T01:48:35.896Z,99161.45
2018-12-03T01:51:06.036Z,99167.64
2018-12-03T01:53:35.513Z,99161.09
2018-12-03T01:56:05.099Z,99161.78
2018-12-03T01:58:34.459Z,99160.78
2018-12-03T02:01:03.870Z,99159.70
2018-12-03T02:03:33.169Z,99166.95
2018-12-03T02:06:02.828Z,99162.11
2018-12-03T02:08:32.063Z,99156.77
2018-12-03T02:11:01.415Z,99155.43
2018-12-03T02:13:30.904Z,99151.92
2018-12-03T02:16:00.256Z,99151.05
2018-12-03T02:18:30.014Z,99161.09
2018-12-03T02:20:59.459Z,99154.36
2018-12-03T02:23:28.816Z,99155.06
2018-12-03T02:25:58.188Z,99156.42
2018-12-03T02:28:27.535Z,99146.41
2018-12-03T02:30:56.820Z,99142.42
2018-12-03T02:33:26.085Z,99142.47
2018-12-03T02:35:55.406Z,99131.72
2018-12-03T02:38:24.708Z,99133.45
2018-12-03T02:40:53.948Z,99129.11
2018-12-03T02:43:23.536Z,99138.14
2018-12-03T02:45:52.872Z,99136.95
2018-12-03T02:48:22.111Z,99134.39
2018-12-03T02:50:52.251Z,99131.43
2018-12-03T02:53:21.588Z,99133.78
2018-12-03T02:55:50.992Z,99130.79
2018-12-03T02:58:20.380Z,99131.13
2018-12-03T03:00:49.736Z,99128.27
2018-12-03T03:03:19.214Z,99122.42
2018-12-03T03:05:49.324Z,99115.79
2018-12-03T03:08:18.686Z,99118.41
2018-12-03T03:10:48.057Z,99111.23
2018-12-03T03:13:17.423Z,99110.23
2018-12-03T03:15:46.684Z,99113.41
2018-12-03T03:18:15.951Z,99112.77
2018-12-03T03:20:45.893Z,99109.37
2018-12-03T03:23:15.179Z,99106.04
2018-12-03T03:25:44.436Z,99109.94
2018-12-03T03:28:14.051Z,99104.42
2018-12-03T03:30:43.390Z,99105.72
2018-12-03T03:33:12.709Z,99101.41
2018-12-03T03:35:42.007Z,99099.40
2018-12-03T03:38:11.261Z,99102.42
2018-12-03T03:40:40.687Z,99092.39
2018-12-03T03:43:10.852Z,99097.06
2018-12-03T03:45:40.244Z,99083.62
2018-12-03T03:48:09.512Z,99089.16
2018-12-03T03:50:38.902Z,99084.14
2018-12-03T03:53:08.140Z,99090.66
2018-12-03T03:55:37.391Z,99089.04
2018-12-03T03:58:07.539Z,99091.71
2018-12-03T04:00:36.845Z,99090.48
2018-12-03T04:03:06.184Z,99086.16
2018-12-03T04:05:35.627Z,99095.72
2018-12-03T04:08:04.948Z,99096.06
2018-12-03T04:10:34.209Z,99100.08
2018-12-03T04:13:03.487Z,99094.40
2018-12-03T04:15:32.877Z,99092.05
2018-12-03T04:18:04.261Z,99093.55
2018-12-03T04:20:33.823Z,99093.66
2018-12-03T04:23:03.654Z,99092.33
2018-12-03T04:25:33.031Z,99085.78
2018-12-03T04:28:02.324Z,99088.25
2018-12-03T04:30:34.627Z,99078.55
2018-12-03T04:33:04.975Z,99080.21
2018-12-03T04:35:34.433Z,99073.01
2018-12-03T04:38:03.707Z,99070.67
2018-12-03T04:40:33.008Z,99069.63
2018-12-03T04:43:02.315Z,99068.84
2018-12-03T04:45:31.583Z,99062.81
2018-12-03T04:48:01.115Z,99058.75
2018-12-03T04:50:30.483Z,99063.77
2018-12-03T04:52:59.715Z,99060.25
2018-12-03T04:55:29.006Z,99065.59
2018-12-03T04:57:58.401Z,99065.44
2018-12-03T05:00:27.640Z,99061.92
2018-12-03T05:02:56.892Z,99059.75
2018-12-03T05:05:26.961Z,99059.77
2018-12-03T05:07:56.899Z,99056.25
2018-12-03T05:10:26.185Z,99048.73
2018-12-03T05:12:55.420Z,99057.09
2018-12-03T05:15:24.684Z,99052.58
2018-12-03T05:17:53.973Z,99049.12
2018-12-03T05:20:24.555Z,99047.13
2018-12-03T05:22:53.792Z,99039.44
2018-12-03T05:25:23.120Z,99039.27
2018-12-03T05:27:52.401Z,99035.09
2018-12-03T05:30:21.864Z,99035.44
2018-12-03T05:32:51.158Z,99032.77
2018-12-03T05:35:23.075Z,99034.30
2018-12-03T05:37:52.322Z,99037.16
2018-12-03T05:40:25.596Z,99030.13
2018-12-03T05:42:54.934Z,99017.77
2018-12-03T05:45:24.199Z,99024.80
2018-12-03T05:47:53.461Z,99020.48
2018-12-03T05:50:22.738Z,99018.82
2018-12-03T05:52:51.931Z,99024.84
2018-12-03T05:55:21.271Z,99013.48
2018-12-03T05:57:53.557Z,99017.83
2018-12-03T06:00:23.973Z,99023.01
2018-12-03T06:02:53.381Z,99025.34
2018-12-03T06:05:22.658Z,99017.66
2018-12-03T06:07:52.027Z,99022.22
2018-12-03T06:10:22.464Z,99016.53
2018-12-03T06:12:51.900Z,99007.33
2018-12-03T06:15:21.952Z,99012.52
2018-12-03T06:17:53.243Z,99013.03
2018-12-03T06:20:23.175Z,99015.88
2018-12-03T06:22:53.650Z,99011.56
2018-12-03T06:25:25.880Z,99007.68
2018-12-03T06:27:55.079Z,99007.22
2018-12-03T06:30:25.265Z,99002.50
2018-12-03T06:32:54.632Z,99008.55
2018-12-03T06:35:24.044Z,99012.91
2018-12-03T06:37:53.267Z,99012.56
2018-12-03T06:40:29.054Z,99013.91
2018-12-03T06:42:58.412Z,99012.86
2018-12-03T06:45:28.140Z,99013.73
2018-12-03T06:48:14.129Z,99014.91
2018-12-03T06:50:43.490Z,99009.56
2018-12-03T06:53:12.866Z,99008.23
2018-12-03T06:55:42.360Z,99008.73
2018-12-03T06:58:11.670Z,99017.09
2018-12-03T07:00:41.197Z,99020.30
2018-12-03T07:03:10.615Z,99018.93
2018-12-03T07:05:39.975Z,99026.63
2018-12-03T07:08:10.223Z,99024.28
2018-12-03T07:10:41.174Z,99025.95
2018-12-03T07:13:12.741Z,99018.92
2018-12-03T07:15:43.548Z,99024.44
2018-12-03T07:18:13.370Z,99021.43
2018-12-03T07:20:42.835Z,99023.56
2018-12-03T07:23:12.280Z,99032.92
2018-12-03T07:25:42.200Z,99029.53
2018-12-03T07:28:11.557Z,99031.88
2018-12-03T07:30:44.270Z,99034.88
2018-12-03T07:33:13.778Z,99034.53
2018-12-03T07:35:43.067Z,99036.03
2018-12-03T07:38:12.456Z,99041.52
2018-12-03T07:40:41.879Z,99040.18
2018-12-03T07:43:11.268Z,99042.34
2018-12-03T07:45:42.849Z,99064.23
2018-12-03T07:48:12.199Z,99051.69
2018-12-03T07:50:41.571Z,99053.87
2018-12-03T07:53:11.009Z,99040.49
2018-12-03T07:55:40.334Z,99054.37
2018-12-03T07:58:13.742Z,99058.67
2018-12-03T08:00:45.695Z,99060.51
2018-12-03T08:03:15.089Z,99061.34
2018-12-03T08:05:44.392Z,99067.91
2018-12-03T08:08:13.677Z,99069.53
2018-12-03T08:10:46.786Z,99068.52
2018-12-03T08:13:16.865Z,99075.02
2018-12-03T08:15:46.345Z,99083.88
2018-12-03T08:18:17.520Z,99079.03
2018-12-03T08:20:52.296Z,99079.37
2018-12-03T08:23:26.433Z,99078.20
2018-12-03T08:26:01.691Z,99076.86
2018-12-03T08:28:31.354Z,99084.55
2018-12-03T08:31:01.221Z,99081.64
2018-12-03T08:33:30.716Z,99083.64
2018-12-03T08:36:00.118Z,99090.82
2018-12-03T08:38:29.408Z,99099.80
2018-12-03T08:41:02.150Z,99085.73
2018-12-03T08:43:31.433Z,99084.05
2018-12-03T08:46:02.110Z,99092.78
2018-12-03T08:48:34.628Z,99095.80
2018-12-03T08:51:04.788Z,99093.13
2018-12-03T08:53:34.058Z,99095.25
2018-12-03T08:56:03.576Z,99096.90
2018-12-03T08:58:32.937Z,99106.76
2018-12-03T09:01:07.259Z,99099.91
2018-12-03T09:03:36.785Z,99106.86
2018-12-03T09:06:08.602Z,99106.86
2018-12-03T09:08:38.174Z,99115.14
2018-12-03T09:11:10.002Z,99113.28
2018-12-03T09:13:39.434Z,99118.45
2018-12-03T09:16:08.686Z,99130.14
2018-12-03T09:18:39.509Z,99124.39
2018-12-03T09:21:13.183Z,99123.72
2018-12-03T09:23:43.789Z,99119.89
2018-12-03T09:26:13.823Z,99119.70
2018-12-03T09:28:43.136Z,99124.53
2018-12-03T09:31:20.894Z,99121.20
2018-12-03T09:33:57.513Z,99119.68
2018-12-03T09:36:28.295Z,99123.34
2018-12-03T09:39:05.551Z,99114.17
2018-12-03T09:41:34.957Z,99115.85
2018-12-03T09:44:04.198Z,99115.38
2018-12-03T09:46:33.515Z,99121.12
2018-12-03T09:49:06.322Z,99127.14
2018-12-03T09:51:36.712Z,99123.16
2018-12-03T09:54:07.891Z,99122.91
2018-12-03T09:56:42.970Z,99123.59
2018-12-03T09:59:17.636Z,99120.08
2018-12-03T10:01:48.456Z,99122.06
2018-12-03T10:04:35.267Z,99122.20
2018-12-03T10:07:04.621Z,99126.30
2018-12-03T10:09:37.141Z,99122.40
2018-12-03T10:12:08.092Z,99125.05
2018-12-03T10:14:37.481Z,99126.86
2018-12-03T10:17:07.490Z,99125.80
2018-12-03T10:19:36.825Z,99119.25
2018-12-03T10:22:07.523Z,99115.69
2018-12-03T10:24:38.240Z,99126.72
2018-12-03T10:27:11.659Z,99123.42
2018-12-03T10:29:41.630Z,99125.94
2018-12-03T10:32:14.958Z,99125.63
2018-12-03T10:34:45.087Z,99124.63
2018-12-03T10:37:14.523Z,99120.67
2018-12-03T10:39:44.032Z,99124.94
2018-12-03T10:42:14.999Z,99117.11
2018-12-03T10:44:44.611Z,99121.30
2018-12-03T10:47:14.058Z,99121.64
2018-12-03T10:49:43.594Z,99119.28
2018-12-03T10:52:17.847Z,99117.16
2018-12-03T10:54:47.304Z,99127.48
2018-12-03T10:57:19.649Z,99118.13
2018-12-03T10:59:53.347Z,99121.64
2018-12-03T11:03:41.897Z,99118.00
2018-12-03T11:06:17.284Z,99114.78
2018-12-03T11:08:46.953Z,99129.29
2018-12-03T11:11:16.362Z,99123.11
2018-12-03T11:13:45.611Z,99121.59
2018-12-03T11:16:50.906Z,99120.25
2018-12-03T11:19:20.238Z,99113.85
2018-12-03T11:21:49.544Z,99119.20
2018-12-03T11:24:18.860Z,99119.70
2018-12-03T11:26:49.999Z,99113.73
2018-12-03T11:29:19.386Z,99112.02
2018-12-03T11:31:48.763Z,99118.02
2018-12-03T11:34:22.440Z,99111.34
2018-12-03T11:36:58.667Z,99119.33
2018-12-03T11:39:58.654Z,99114.48
2018-12-03T11:42:31.869Z,99120.17
2018-12-03T11:45:01.178Z,99117.81
2018-12-03T11:47:30.493Z,99122.81
2018-12-03T11:49:59.768Z,99132.16
2018-12-03T11:52:29.809Z,99131.79
2018-12-03T11:54:59.057Z,99128.62
2018-12-03T11:57:28.499Z,99128.50
2018-12-03T11:59:58.259Z,99121.81
2018-12-03T12:02:28.432Z,99121.00
2018-12-03T12:04:57.766Z,99121.88
2018-12-03T12:07:27.130Z,99119.59
2018-12-03T12:09:56.383Z,99123.11
2018-12-03T12:12:25.732Z,99120.75
2018-12-03T12:14:56.688Z,99120.96
2018-12-03T12:17:25.927Z,99113.52
2018-12-03T12:19:55.206Z,99119.20
2018-12-03T12:22:25.525Z,99112.58
2018-12-03T12:24:54.812Z,99111.42
2018-12-03T12:27:24.297Z,99106.76
2018-12-03T12:29:53.817Z,99112.10
2018-12-03T12:32:23.300Z,99112.44
2018-12-03T12:34:52.653Z,99111.77
2018-12-03T12:37:22.205Z,99103.09
2018-12-03T12:39:51.738Z,99112.10
2018-12-03T12:42:22.710Z,99119.45
2018-12-03T12:44:52.114Z,99121.46
2018-12-03T12:47:21.321Z,99116.61
2018-12-03T12:49:50.749Z,99120.12
2018-12-03T12:52:25.189Z,99114.62
2018-12-03T12:54:54.473Z,99111.50
2018-12-03T12:57:23.719Z,99111.21
2018-12-03T12:59:53.417Z,99119.08
2018-12-03T13:02:22.809Z,99114.23
2018-12-03T13:04:52.055Z,99122.41
2018-12-03T13:07:21.391Z,99110.88
2018-12-03T13:09:50.669Z,99102.02
2018-12-03T13:12:21.080Z,99112.13
2018-12-03T13:14:50.490Z,99111.50
2018-12-03T13:17:19.840Z,99104.19
2018-12-03T13:19:49.155Z,99120.23
2018-12-03T13:22:19.267Z,99117.81
2018-12-03T13:24:48.489Z,99120.14
2018-12-03T13:27:17.764Z,99102.14
2018-12-03T13:29:47.176Z,99113.17
2018-12-03T13:32:16.484Z,99118.19
2018-12-03T13:34:45.888Z,99119.47
2018-12-03T13:37:15.399Z,99105.10
2018-12-03T13:39:44.989Z,99115.30
2018-12-03T13:42:14.444Z,99121.78
2018-12-03T13:44:44.204Z,99119.05
2018-12-03T13:47:13.259Z,99114.36
2018-12-03T13:49:50.046Z,99121.02
2018-12-03T13:52:19.348Z,99124.87
2018-12-03T13:54:48.638Z,99118.86
2018-12-03T13:57:19.557Z,99127.05
2018-12-03T13:59:49.912Z,99122.38
2018-12-03T14:02:19.351Z,99117.34
2018-12-03T14:04:48.819Z,99120.67
2018-12-03T14:07:26.725Z,99131.73
2018-12-03T14:11:25.166Z,99124.03
2018-12-03T14:14:14.472Z,99122.64
2018-12-03T14:17:17.895Z,99127.30
2018-12-03T14:19:50.690Z,99122.61
2018-12-03T14:22:23.595Z,99134.95
2018-12-03T14:24:54.994Z,99135.60
2018-12-03T14:27:24.514Z,99137.56
2018-12-03T14:29:54.031Z,99145.52
2018-12-03T14:32:23.426Z,99148.31
2018-12-03T14:34:52.672Z,99150.64
2018-12-03T14:37:22.100Z,99148.63
2018-12-03T14:39:51.500Z,99145.43
2018-12-03T14:42:20.883Z,99150.62
2018-12-03T14:44:50.327Z,99138.44
2018-12-03T14:47:19.718Z,99139.09
2018-12-03T14:49:49.027Z,99142.75
2018-12-03T14:52:18.432Z,99148.37
2018-12-03T14:54:48.189Z,99154.22
2018-12-03T14:57:17.661Z,99149.03
2018-12-03T14:59:47.097Z,99158.38
2018-12-03T15:02:16.604Z,99154.68
2018-12-03T15:04:46.080Z,99152.16
2018-12-03T15:07:15.341Z,99154.03
2018-12-03T15:09:44.767Z,99146.70
2018-12-03T15:12:14.180Z,99147.35
2018-12-03T15:14:45.020Z,99149.84
2018-12-03T15:17:14.279Z,99162.54
2018-12-03T15:19:44.782Z,99150.83
2018-12-03T15:22:14.214Z,99155.17
2018-12-03T15:24:44.788Z,99148.84
2018-12-03T15:27:15.344Z,99161.36
2018-12-03T15:29:44.879Z,99158.34
2018-12-03T15:32:14.358Z,99155.17
2018-12-03T15:34:44.357Z,99153.16
2018-12-03T15:37:13.860Z,99155.14
2018-12-03T15:39:44.899Z,99146.14
2018-12-03T15:42:16.264Z,99150.14
2018-12-03T15:44:47.779Z,99146.07
2018-12-03T15:47:18.500Z,99145.73
2018-12-03T15:49:48.135Z,99151.56
2018-12-03T15:52:18.281Z,99155.57
2018-12-03T15:54:48.791Z,99153.05
2018-12-03T15:57:18.617Z,99156.75
2018-12-03T15:59:48.053Z,99161.94
2018-12-03T16:02:18.170Z,99159.61
2018-12-03T16:04:47.536Z,99170.27
2018-12-03T16:07:16.814Z,99164.20
2018-12-03T16:09:47.353Z,99165.31
2018-12-03T16:12:17.877Z,99163.63
2018-12-03T16:14:47.291Z,99157.27
2018-12-03T16:17:20.189Z,99165.13
2018-12-03T16:19:47.533Z,99155.44
2018-12-03T16:22:22.036Z,99160.13
2018-12-03T16:24:51.578Z,99160.43
2018-12-03T16:27:21.081Z,99164.78
2018-12-03T16:29:50.522Z,99162.11
2018-12-03T16:32:20.296Z,99171.11
2018-12-03T16:34:49.752Z,99169.77
2018-12-03T16:37:20.261Z,99169.93
2018-12-03T16:39:50.601Z,99173.94
2018-12-03T16:42:19.882Z,99182.78
2018-12-03T16:44:49.388Z,99184.46
2018-12-03T16:47:19.732Z,99184.80
2018-12-03T16:49:49.123Z,99192.97
2018-12-03T16:52:18.700Z,99188.81
2018-12-03T16:54:48.030Z,99190.48
2018-12-03T16:57:17.652Z,99189.12
2018-12-03T16:59:47.238Z,99193.70
2018-12-03T17:02:16.966Z,99190.14
2018-12-03T17:04:46.875Z,99198.92
2018-12-03T17:07:16.485Z,99194.23
2018-12-03T17:09:52.430Z,99199.87
2018-12-03T17:12:26.605Z,99208.91
2018-12-03T17:14:55.925Z,99213.22
2018-12-03T17:17:25.717Z,99214.09
2018-12-03T17:19:55.611Z,99219.36
2018-12-03T17:22:32.126Z,99217.08
2018-12-03T17:25:01.452Z,99214.98
2018-12-03T17:27:30.995Z,99217.84
2018-12-03T17:30:00.416Z,99221.16
2018-12-03T17:32:31.077Z,99220.81
2018-12-03T17:35:00.573Z,99223.95
2018-12-03T17:37:29.967Z,99218.19
2018-12-03T17:40:00.936Z,99226.05
2018-12-03T17:42:30.322Z,99230.25
2018-12-03T17:45:00.741Z,99232.08
2018-12-03T17:47:31.614Z,99235.89
2018-12-03T17:50:01.843Z,99230.39
2018-12-03T17:52:34.387Z,99234.25
2018-12-03T17:55:06.521Z,99236.77
2018-12-03T17:57:35.981Z,99235.66
2018-12-03T18:00:12.052Z,99235.50
2018-12-03T18:02:41.681Z,99233.37
2018-12-03T18:05:12.140Z,99240.70
2018-12-03T18:07:41.535Z,99236.84
2018-12-03T18:10:11.612Z,99250.58
2018-12-03T18:12:47.208Z,99240.89
2018-12-03T18:15:18.522Z,99239.74
2018-12-03T18:17:48.861Z,99241.15
2018-12-03T18:20:19.768Z,99243.17
2018-12-03T18:22:50.062Z,99235.16
2018-12-03T18:25:19.356Z,99234.70
2018-12-03T18:27:49.697Z,99238.41
2018-12-03T18:33:38.564Z,99243.83
2018-12-03T18:36:08.540Z,99239.97
2018-12-03T18:38:38.146Z,99245.16
2018-12-03T18:41:08.316Z,99239.86
2018-12-03T18:43:39.259Z,99240.31
2018-12-03T18:46:10.326Z,99242.88
2018-12-03T18:48:39.928Z,99241.64
2018-12-03T18:51:10.296Z,99242.75
2018-12-03T18:53:41.027Z,99247.33
2018-12-03T18:56:10.944Z,99250.69
2018-12-03T18:58:45.054Z,99262.22
2018-12-03T19:01:14.376Z,99257.91
2018-12-03T19:03:43.965Z,99256.38
2018-12-03T19:06:13.713Z,99255.91
2018-12-03T19:08:43.481Z,99257.05
2018-12-03T19:11:13.422Z,99261.83
2018-12-03T19:13:43.318Z,99254.45
2018-12-03T19:16:14.262Z,99253.77
2018-12-03T19:18:44.178Z,99263.76
2018-12-03T19:21:13.841Z,99253.37
2018-12-03T19:23:44.470Z,99259.63
2018-12-03T19:26:13.844Z,99263.94
2018-12-03T19:28:43.393Z,99263.59
2018-12-03T19:31:12.771Z,99256.91
2018-12-03T19:33:42.457Z,99257.75
2018-12-03T19:36:11.738Z,99257.11
2018-12-03T19:38:41.085Z,99256.96
2018-12-03T19:43:56.591Z,99253.67
2018-12-03T19:46:26.160Z,99255.80
2018-12-03T19:48:55.697Z,99260.45
2018-12-03T19:51:25.374Z,99254.61
2018-12-03T19:53:56.718Z,99268.16
2018-12-03T19:56:26.214Z,99268.50
2018-12-03T19:58:56.681Z,99263.85
2018-12-03T20:01:26.263Z,99283.53
2018-12-03T20:03:55.572Z,99277.20
2018-12-03T20:06:24.925Z,99271.25
2018-12-03T20:08:54.357Z,99282.47
2018-12-03T20:11:25.043Z,99285.34
2018-12-03T20:13:54.483Z,99283.95
2018-12-03T20:16:24.592Z,99287.61
2018-12-03T20:18:54.170Z,99293.22
2018-12-03T20:21:25.526Z,99304.88
2018-12-03T20:23:57.750Z,99300.83
2018-12-03T20:30:35.833Z,99304.69
2018-12-03T20:33:10.078Z,99306.95
2018-12-03T20:35:54.293Z,99312.50
2018-12-03T20:38:46.822Z,99316.06
2018-12-03T20:41:48.883Z,99308.00
2018-12-03T20:44:32.643Z,99300.99
2018-12-03T20:47:34.192Z,99307.45
2018-12-03T20:50:17.534Z,99316.36
2018-12-03T20:52:52.926Z,99320.16
2018-12-03T20:55:26.896Z,99321.51
2018-12-03T20:57:56.389Z,99322.78
2018-12-03T21:00:25.799Z,99326.58
2018-12-03T21:02:59.144Z,99331.47
2018-12-03T21:05:30.137Z,99341.92
2018-12-03T21:08:00.100Z,99339.03
2018-12-03T21:10:29.636Z,99344.17
2018-12-03T21:13:00.569Z,99357.42
2018-12-03T21:15:30.094Z,99362.28
2018-12-03T21:17:59.669Z,99365.39
2018-12-03T21:20:35.683Z,99369.33
2018-12-03T21:23:05.486Z,99381.83
2018-12-03T21:25:44.336Z,99375.73
2018-12-03T21:28:31.678Z,99393.24
2018-12-03T21:31:02.220Z,99395.61
2018-12-03T21:33:31.860Z,99405.42
2018-12-03T21:36:01.985Z,99395.81
2018-12-03T21:38:31.753Z,99397.28
2018-12-03T21:41:02.500Z,99396.21
2018-12-03T21:43:31.825Z,99395.90
2018-12-03T21:46:01.413Z,99400.28
2018-12-03T21:48:30.791Z,99403.27
2018-12-03T21:51:00.117Z,99403.42
2018-12-03T21:53:29.563Z,99412.38
2018-12-03T21:55:58.878Z,99413.11
2018-12-03T21:58:28.350Z,99409.02
2018-12-03T22:00:58.099Z,99420.88
2018-12-03T22:03:28.600Z,99418.69
2018-12-03T22:05:57.880Z,99421.47
2018-12-03T22:08:29.354Z,99424.02
2018-12-03T22:10:58.745Z,99421.00
2018-12-03T22:13:28.049Z,99428.48
2018-12-03T22:15:57.441Z,99427.64
2018-12-03T22:18:27.670Z,99431.14
2018-12-03T22:20:56.959Z,99429.20
2018-12-03T22:23:26.294Z,99431.50
2018-12-03T22:25:56.623Z,99435.36
2018-12-03T22:28:26.063Z,99433.67
2018-12-03T22:30:55.501Z,99439.70
2018-12-03T22:33:25.536Z,99437.77
2018-12-03T22:35:54.949Z,99446.48
2018-12-03T22:38:24.880Z,99443.83
2018-12-03T22:40:54.383Z,99452.50
2018-12-03T22:43:23.718Z,99457.33
2018-12-03T22:45:53.342Z,99456.02
2018-12-03T22:48:23.148Z,99458.45
2018-12-03T22:50:52.823Z,99457.95
2018-12-03T22:53:23.162Z,99464.48
2018-12-03T22:55:53.848Z,99472.93
2018-12-03T22:58:23.236Z,99475.71
2018-12-03T23:01:00.159Z,99479.91
2018-12-03T23:03:29.664Z,99489.81
2018-12-03T23:05:59.021Z,99494.41
2018-12-03T23:08:29.152Z,99508.66
2018-12-03T23:10:58.980Z,99509.98
2018-12-03T23:13:31.355Z,99513.97
2018-12-03T23:16:00.699Z,99522.06
2018-12-03T23:18:30.198Z,99524.95
2018-12-03T23:21:00.591Z,99522.17
2018-12-03T23:23:30.457Z,99534.00
2018-12-03T23:25:59.918Z,99539.67
2018-12-03T23:28:30.850Z,99543.94
2018-12-03T23:31:00.413Z,99543.94
2018-12-03T23:33:30.767Z,99546.83
2018-12-03T23:36:00.301Z,99550.45
2018-12-03T23:38:29.796Z,99558.20
2018-12-03T23:40:59.706Z,99562.06
2018-12-03T23:43:29.236Z,99562.17
2018-12-03T23:45:59.368Z,99572.08
2018-12-03T23:48:29.156Z,99575.00
2018-12-03T23:50:58.728Z,99578.02
2018-12-03T23:53:28.243Z,99579.71
2018-12-03T23:55:57.867Z,99580.06
2018-12-03T23:58:27.327Z,99582.37
